Time;durP1;ratioP1;P1;durP2;ratioP2;P2;SDS_P1;SDS_P2;PMS_P1;PMS_P2;Temp;Humidity;BMP_temperature;BMP_pressure;BME280_temperature;BME280_humidity;BME280_pressure;Samples;Min_cycle;Max_cycle;Signal;HPM_P1;HPM_P2
2021/10/30 00:00:06;;;;;;;5.30;3.97;;;;;;;11.23;64.84;100647.84;5103601;28;20080;-59
2021/10/30 00:02:32;;;;;;;5.32;4.28;;;;;;;11.19;64.74;100634.63;5093632;28;20039;-60
2021/10/30 00:04:57;;;;;;;4.07;3.67;;;;;;;11.15;64.60;100634.97;5109606;28;20454;-59
2021/10/30 00:07:23;;;;;;;4.97;3.97;;;;;;;11.25;64.63;100643.22;5102672;28;20382;-60
2021/10/30 00:09:48;;;;;;;4.43;4.03;;;;;;;11.24;64.58;100642.34;5103268;28;20039;-61
2021/10/30 00:12:14;;;;;;;5.65;3.80;;;;;;;11.27;64.15;100643.97;5108354;28;20039;-60
2021/10/30 00:14:39;;;;;;;5.40;4.43;;;;;;;11.06;64.38;100626.59;5097395;28;20036;-58
2021/10/30 00:17:05;;;;;;;5.32;3.97;;;;;;;11.26;64.42;100653.84;5109415;28;20026;-60
2021/10/30 00:19:31;;;;;;;5.47;3.83;;;;;;;11.24;64.47;100639.69;5100673;28;20032;-60
2021/10/30 00:21:56;;;;;;;9.63;4.32;;;;;;;11.27;64.44;100658.22;5083766;28;20921;-60
2021/10/30 00:24:22;;;;;;;7.20;4.10;;;;;;;11.29;64.41;100644.72;5091063;28;20031;-61
2021/10/30 00:26:48;;;;;;;5.80;4.30;;;;;;;11.27;64.32;100638.63;5097618;28;20085;-60
2021/10/30 00:29:14;;;;;;;4.45;3.83;;;;;;;11.28;64.10;100641.16;5108028;28;20076;-58
2021/10/30 00:31:40;;;;;;;8.60;4.22;;;;;;;11.25;63.93;100640.56;5101401;28;20027;-58
2021/10/30 00:34:05;;;;;;;5.78;4.60;;;;;;;11.22;64.07;100630.88;5101348;28;20035;-59
2021/10/30 00:36:31;;;;;;;5.78;3.97;;;;;;;10.52;63.96;100530.38;5110597;28;20042;-61
2021/10/30 00:38:56;;;;;;;7.35;3.75;;;;;;;11.20;64.11;100640.88;5098021;28;20035;-59
2021/10/30 00:41:22;;;;;;;4.82;3.70;;;;;;;11.18;64.13;100645.47;5114064;28;20030;-60
2021/10/30 00:43:48;;;;;;;5.78;3.80;;;;;;;11.21;63.95;100645.25;5094458;28;20085;-60
2021/10/30 00:46:15;;;;;;;7.47;4.10;;;;;;;11.19;64.13;100647.19;5111972;28;20036;-60
2021/10/30 00:48:41;;;;;;;5.30;4.05;;;;;;;11.13;64.08;100637.75;5113513;28;20399;-60
2021/10/30 00:51:07;;;;;;;6.15;4.03;;;;;;;11.14;63.99;100638.63;5109212;28;20314;-60
2021/10/30 00:53:33;;;;;;;5.97;4.30;;;;;;;11.21;63.97;100650.63;5102004;28;20031;-60
2021/10/30 00:56:02;;;;;;;5.93;4.03;;;;;;;11.23;63.95;100640.66;5100958;28;20031;-60
2021/10/30 00:58:32;;;;;;;5.40;4.75;;;;;;;11.19;63.81;100655.25;5093426;28;20383;-60
2021/10/30 01:00:58;;;;;;;6.22;4.32;;;;;;;11.15;64.34;100645.69;5097459;28;20395;-59
2021/10/30 01:03:23;;;;;;;6.80;4.18;;;;;;;11.13;64.17;100651.16;5106242;28;20094;-60
2021/10/30 01:05:49;;;;;;;4.47;4.07;;;;;;;11.13;64.12;100655.66;5103695;28;20175;-59
2021/10/30 01:08:14;;;;;;;5.38;4.35;;;;;;;11.11;64.10;100650.41;5113989;28;20369;-59
2021/10/30 01:10:40;;;;;;;5.53;4.03;;;;;;;11.17;63.91;100646.44;5119175;27;20031;-62
2021/10/30 01:13:06;;;;;;;5.50;4.28;;;;;;;11.18;63.96;100650.84;5108083;28;20044;-60
2021/10/30 01:15:31;;;;;;;5.97;4.15;;;;;;;11.15;64.04;100643.03;5107854;28;20460;-59
2021/10/30 01:17:57;;;;;;;6.07;3.78;;;;;;;11.18;63.95;100650.84;5113187;28;20035;-59
2021/10/30 01:20:26;;;;;;;5.53;4.03;;;;;;;11.19;63.84;100658.75;5097496;28;20107;-60
2021/10/30 01:23:02;;;;;;;4.75;4.05;;;;;;;11.27;63.88;100654.69;5107658;28;20020;-59
2021/10/30 01:25:29;;;;;;;5.45;4.22;;;;;;;11.14;63.81;100630.59;5123220;27;20468;-58
2021/10/30 01:27:57;;;;;;;4.22;3.63;;;;;;;11.18;63.83;100656.19;5132323;27;20038;-60
2021/10/30 01:30:23;;;;;;;6.15;4.20;;;;;;;11.18;63.95;100643.66;5129924;27;20037;-58
2021/10/30 01:33:00;;;;;;;4.93;3.95;;;;;;;11.07;63.88;100616.75;5111167;27;20031;-59
2021/10/30 01:35:34;;;;;;;5.00;4.03;;;;;;;11.24;63.58;100645.03;5103413;28;20047;-59
2021/10/30 01:38:01;;;;;;;6.15;3.90;;;;;;;11.27;63.70;100660.91;5094324;28;20447;-60
2021/10/30 01:40:28;;;;;;;5.60;3.80;;;;;;;11.29;63.53;100658.97;5112698;28;20395;-59
2021/10/30 01:42:55;;;;;;;4.53;3.67;;;;;;;11.32;63.48;100661.44;5095982;28;20110;-60
2021/10/30 01:45:21;;;;;;;6.60;3.83;;;;;;;11.29;63.20;100653.59;5105996;28;20468;-59
2021/10/30 01:47:47;;;;;;;4.40;3.75;;;;;;;11.36;63.63;100661.25;5102867;27;20042;-58
2021/10/30 01:50:14;;;;;;;7.45;4.28;;;;;;;11.40;63.12;100665.41;5131115;27;20073;-60
2021/10/30 01:52:40;;;;;;;8.65;4.03;;;;;;;11.39;63.09;100669.06;5127418;27;20124;-61
2021/10/30 01:55:11;;;;;;;4.55;3.90;;;;;;;11.42;63.29;100664.31;5108240;28;20392;-59
2021/10/30 01:57:36;;;;;;;4.38;3.78;;;;;;;11.42;62.82;100668.84;5107075;28;20047;-59
2021/10/30 02:00:05;;;;;;;5.45;4.07;;;;;;;11.20;63.09;100638.19;5106571;28;20024;-60
2021/10/30 02:02:30;;;;;;;7.28;3.60;;;;;;;11.38;63.22;100668.19;5116602;27;20042;-59
2021/10/30 02:04:56;;;;;;;4.78;3.75;;;;;;;11.40;63.10;100670.78;5095126;28;20023;-59
2021/10/30 02:07:21;;;;;;;4.80;3.90;;;;;;;11.39;63.04;100669.91;5104727;28;20043;-60
2021/10/30 02:09:47;;;;;;;5.18;3.78;;;;;;;11.38;63.05;100668.19;5101921;28;20387;-60
2021/10/30 02:12:13;;;;;;;4.60;3.72;;;;;;;11.42;63.01;100677.72;5097226;28;20093;-61
2021/10/30 02:14:38;;;;;;;4.25;3.45;;;;;;;11.39;63.06;100666.38;5110050;28;20045;-60
2021/10/30 02:17:04;;;;;;;4.53;4.03;;;;;;;11.43;63.17;100675.91;5096528;28;20384;-60
2021/10/30 02:19:29;;;;;;;4.18;3.75;;;;;;;11.49;62.79;100675.47;5103163;28;20059;-60
2021/10/30 02:21:55;;;;;;;4.55;3.65;;;;;;;11.41;62.94;100661.78;5103730;28;20043;-60
2021/10/30 02:24:21;;;;;;;4.38;3.58;;;;;;;11.44;62.91;100675.78;5096502;28;20445;-60
2021/10/30 02:26:46;;;;;;;4.13;3.70;;;;;;;11.45;63.14;100687.41;5105791;28;20055;-60
2021/10/30 02:29:12;;;;;;;7.68;4.05;;;;;;;11.49;62.98;100675.47;5097717;28;20027;-60
2021/10/30 02:31:38;;;;;;;10.32;3.85;;;;;;;11.50;62.98;100687.91;5102129;28;20375;-60
2021/10/30 02:34:03;;;;;;;6.28;4.20;;;;;;;11.50;62.73;100690.59;5104270;28;20024;-58
2021/10/30 02:36:29;;;;;;;6.88;4.47;;;;;;;11.52;62.98;100688.66;5077041;28;20085;-59
2021/10/30 02:38:54;;;;;;;6.65;4.05;;;;;;;11.49;62.61;100687.06;5109361;28;20090;-60
2021/10/30 02:41:20;;;;;;;4.20;3.80;;;;;;;11.36;62.67;100653.19;5104286;28;20103;-60
2021/10/30 02:43:45;;;;;;;4.75;3.78;;;;;;;11.49;62.53;100688.88;5101355;28;20107;-59
2021/10/30 02:46:11;;;;;;;7.28;4.00;;;;;;;11.51;62.55;100699.53;5079565;28;20028;-60
2021/10/30 02:48:36;;;;;;;7.05;4.07;;;;;;;11.52;62.59;100702.06;5108029;28;20039;-59
2021/10/30 02:51:02;;;;;;;5.68;3.80;;;;;;;11.46;62.79;100702.50;5096712;28;20096;-60
2021/10/30 02:53:27;;;;;;;4.30;3.75;;;;;;;11.42;62.98;100699.19;5103963;28;20042;-60
2021/10/30 02:55:53;;;;;;;5.60;3.80;;;;;;;11.43;63.09;100697.38;5084160;28;20099;-60
2021/10/30 02:58:18;;;;;;;5.57;3.78;;;;;;;11.43;62.86;100695.53;5095759;28;20479;-60
2021/10/30 03:00:44;;;;;;;5.03;4.03;;;;;;;11.45;62.60;100679.34;5107928;28;20023;-61
2021/10/30 03:03:09;;;;;;;6.78;3.65;;;;;;;11.45;62.73;100690.94;5095367;28;20023;-62
2021/10/30 03:05:34;;;;;;;4.60;3.65;;;;;;;11.29;62.82;100658.13;5084185;28;20036;-60
2021/10/30 03:08:00;;;;;;;5.10;3.67;;;;;;;11.48;62.74;100684.50;5102687;28;20428;-61
2021/10/30 03:10:26;;;;;;;4.80;3.75;;;;;;;11.45;62.63;100690.94;5095101;28;20112;-60
2021/10/30 03:12:51;;;;;;;6.68;3.80;;;;;;;11.49;62.51;100696.94;5110638;28;20043;-60
2021/10/30 03:15:17;;;;;;;10.23;3.78;;;;;;;11.52;62.48;100704.75;5107848;28;20031;-61
2021/10/30 03:17:43;;;;;;;5.20;3.47;;;;;;;11.54;62.48;100700.13;5100460;28;20036;-60
2021/10/30 03:20:09;;;;;;;4.68;3.65;;;;;;;11.38;62.60;100672.72;5104587;28;20035;-61
2021/10/30 03:22:35;;;;;;;4.78;3.47;;;;;;;11.57;62.55;100705.28;5094205;28;20077;-60
2021/10/30 03:25:01;;;;;;;4.47;3.50;;;;;;;11.57;62.51;100697.22;5106793;28;20383;-61
2021/10/30 03:27:27;;;;;;;4.53;3.53;;;;;;;11.56;62.33;100686.63;5079144;28;20019;-60
2021/10/30 03:29:53;;;;;;;7.00;3.75;;;;;;;11.56;62.28;100689.31;5101744;28;20057;-60
2021/10/30 03:32:19;;;;;;;3.97;3.20;;;;;;;11.62;62.34;100692.44;5096110;28;20028;-61
2021/10/30 03:34:44;;;;;;;8.38;4.03;;;;;;;11.67;62.05;100693.91;5089147;28;20084;-61
2021/10/30 03:37:10;;;;;;;4.32;3.90;;;;;;;11.66;62.45;100698.41;5096103;28;20032;-61
2021/10/30 03:39:36;;;;;;;7.15;3.63;;;;;;;11.67;62.41;100684.03;5109590;28;20455;-61
2021/10/30 03:42:03;;;;;;;4.82;3.45;;;;;;;11.69;62.27;100682.09;5103522;28;20398;-59
2021/10/30 03:44:28;;;;;;;4.70;3.95;;;;;;;11.71;62.15;100688.22;5094180;28;20145;-60
2021/10/30 03:46:54;;;;;;;6.00;3.80;;;;;;;11.72;62.31;100692.63;5088755;28;20115;-60
2021/10/30 03:49:19;;;;;;;6.07;4.18;;;;;;;11.70;62.19;100688.31;5096956;28;20434;-60
2021/10/30 03:51:45;;;;;;;4.22;3.70;;;;;;;11.76;62.41;100687.88;5100072;28;20024;-60
2021/10/30 03:54:11;;;;;;;7.90;4.07;;;;;;;11.77;62.03;100685.09;5105224;28;20387;-60
2021/10/30 03:56:37;;;;;;;5.70;4.00;;;;;;;11.75;62.03;100683.47;5093905;28;20088;-59
2021/10/30 03:59:02;;;;;;;4.75;3.95;;;;;;;11.80;62.24;100694.72;5106050;28;20107;-60
2021/10/30 04:01:28;;;;;;;6.55;4.10;;;;;;;11.82;62.22;100690.16;5097717;28;20601;-60
2021/10/30 04:03:53;;;;;;;6.70;3.67;;;;;;;11.84;61.73;100688.22;5098237;28;20456;-60
2021/10/30 04:06:19;;;;;;;6.90;4.05;;;;;;;11.86;61.74;100686.28;5105233;28;20035;-61
2021/10/30 04:08:44;;;;;;;5.95;4.65;;;;;;;11.84;61.75;100677.47;5093090;28;20149;-60
2021/10/30 04:11:10;;;;;;;5.32;4.15;;;;;;;11.82;61.67;100676.72;5104521;28;20403;-62
2021/10/30 04:13:36;;;;;;;4.72;3.88;;;;;;;11.82;61.69;100668.69;5099343;28;20039;-60
2021/10/30 04:16:02;;;;;;;7.47;4.60;;;;;;;11.83;61.83;100674.88;5097385;28;20089;-60
2021/10/30 04:18:27;;;;;;;7.07;4.13;;;;;;;11.74;61.88;100652.25;5104593;28;20512;-60
2021/10/30 04:20:53;;;;;;;7.30;4.53;;;;;;;11.77;61.68;100662.75;5093097;28;20028;-60
2021/10/30 04:23:18;;;;;;;6.95;5.00;;;;;;;11.71;62.02;100660.53;5103748;28;20361;-60
2021/10/30 04:25:44;;;;;;;6.70;4.82;;;;;;;11.62;62.46;100657.56;5100292;28;20388;-60
2021/10/30 04:28:10;;;;;;;9.20;4.70;;;;;;;11.56;62.60;100675.91;5096249;28;20478;-64
2021/10/30 04:30:36;;;;;;;7.25;5.13;;;;;;;11.50;62.86;100666.47;5104523;28;20035;-61
2021/10/30 04:33:01;;;;;;;7.68;4.43;;;;;;;11.40;62.94;100652.84;5094535;28;20023;-62
2021/10/30 04:35:27;;;;;;;7.65;4.68;;;;;;;11.44;63.08;100666.91;5102314;28;20475;-61
2021/10/30 04:37:52;;;;;;;6.93;4.68;;;;;;;11.36;63.06;100658.56;5100505;28;20110;-61
2021/10/30 04:40:18;;;;;;;10.30;4.97;;;;;;;11.40;63.13;100662.75;5110516;28;20024;-60
2021/10/30 04:42:44;;;;;;;5.90;5.00;;;;;;;11.40;63.27;100670.78;5094055;28;20039;-61
2021/10/30 04:45:09;;;;;;;10.02;5.10;;;;;;;11.39;63.34;100674.44;5104350;28;20436;-60
2021/10/30 04:47:35;;;;;;;6.90;5.05;;;;;;;11.36;63.47;100666.59;5098969;28;20030;-60
2021/10/30 04:50:01;;;;;;;7.57;4.97;;;;;;;11.32;63.35;100669.47;5098821;28;20032;-60
2021/10/30 04:52:27;;;;;;;6.72;4.45;;;;;;;11.31;63.41;100678.47;5109261;28;20019;-60
2021/10/30 04:54:53;;;;;;;7.63;4.88;;;;;;;11.29;63.49;100677.75;5094806;28;20022;-62
2021/10/30 04:57:18;;;;;;;8.90;4.35;;;;;;;11.23;63.79;100669.28;5107121;28;20024;-62
2021/10/30 04:59:44;;;;;;;5.90;4.18;;;;;;;11.12;64.07;100657.47;5103504;28;20086;-61
2021/10/30 05:02:09;;;;;;;6.95;4.63;;;;;;;11.09;64.12;100659.50;5099656;28;20099;-61
2021/10/30 05:04:35;;;;;;;6.05;4.32;;;;;;;11.10;64.17;100662.09;5110126;28;20027;-62
2021/10/30 05:07:01;;;;;;;5.43;4.50;;;;;;;11.15;64.05;100673.34;5097514;28;20015;-61
2021/10/30 05:09:26;;;;;;;6.63;4.80;;;;;;;11.20;63.72;100662.31;5102562;28;20051;-60
2021/10/30 05:11:52;;;;;;;6.88;4.93;;;;;;;11.36;63.26;100663.94;5101704;28;20051;-61
2021/10/30 05:14:18;;;;;;;8.27;4.88;;;;;;;11.63;62.81;100658.41;5107803;28;20043;-59
2021/10/30 05:16:43;;;;;;;6.93;4.75;;;;;;;12.33;60.80;100670.34;5096740;28;20046;-60
2021/10/30 05:19:09;;;;;;;6.90;5.05;;;;;;;12.95;58.62;100658.59;5108706;28;20058;-62
2021/10/30 05:21:34;;;;;;;6.55;4.57;;;;;;;13.78;56.43;100667.34;5084672;28;20106;-63
2021/10/30 05:24:00;;;;;;;8.52;4.47;;;;;;;14.53;54.21;100666.66;5100271;28;20032;-60
2021/10/30 05:26:26;;;;;;;5.78;4.90;;;;;;;15.18;52.03;100666.56;5109063;28;20032;-61
2021/10/30 05:28:52;;;;;;;7.18;4.43;;;;;;;15.63;50.49;100636.53;5096606;28;20050;-60
2021/10/30 05:31:18;;;;;;;6.57;4.35;;;;;;;16.58;48.53;100678.50;5106445;28;20169;-60
2021/10/30 05:33:43;;;;;;;6.65;4.43;;;;;;;17.17;46.50;100649.56;5103272;28;20368;-61
2021/10/30 05:36:11;;;;;;;6.75;4.38;;;;;;;17.35;46.10;100671.31;5099596;28;20101;-60
2021/10/30 05:38:43;;;;;;;5.38;4.80;;;;;;;16.79;47.35;100672.97;5092185;28;20403;-61
2021/10/30 05:41:09;;;;;;;6.47;4.78;;;;;;;16.18;48.73;100665.00;5107794;28;20028;-61
2021/10/30 05:43:37;;;;;;;7.78;4.90;;;;;;;16.10;49.54;100683.72;5101348;28;20031;-60
2021/10/30 05:46:04;;;;;;;5.43;4.45;;;;;;;15.63;50.29;100644.63;5082993;28;20500;-62
2021/10/30 05:48:30;;;;;;;7.53;4.68;;;;;;;15.72;50.22;100685.31;5109232;28;20119;-61
2021/10/30 05:50:55;;;;;;;6.50;4.53;;;;;;;15.75;50.04;100682.31;5095783;28;20024;-60
2021/10/30 05:53:21;;;;;;;9.82;4.63;;;;;;;15.71;50.20;100683.59;5105342;28;20024;-60
2021/10/30 05:55:46;;;;;;;6.60;4.88;;;;;;;15.75;50.24;100688.56;5102019;28;20035;-62
2021/10/30 05:58:12;;;;;;;5.78;4.60;;;;;;;16.97;47.59;100681.22;5080775;28;20031;-62
2021/10/30 06:00:37;;;;;;;6.75;4.72;;;;;;;18.88;42.89;100680.81;5108785;28;20051;-63
2021/10/30 06:03:03;;;;;;;5.80;4.95;;;;;;;20.65;39.23;100678.53;5095683;28;20383;-61
2021/10/30 06:05:28;;;;;;;5.53;4.55;;;;;;;22.71;34.96;100684.34;5104474;28;20016;-60
2021/10/30 06:07:56;;;;;;;5.10;4.50;;;;;;;24.57;31.38;100682.72;5103115;28;20023;-61
2021/10/30 06:10:21;;;;;;;7.80;4.50;;;;;;;26.02;28.93;100680.56;5100152;28;20035;-62
2021/10/30 06:12:48;;;;;;;7.95;4.47;;;;;;;26.61;27.82;100678.22;5095340;28;20097;-60
2021/10/30 06:15:14;;;;;;;6.22;4.35;;;;;;;27.48;26.70;100658.06;5106431;28;20059;-62
2021/10/30 06:17:40;;;;;;;7.80;4.72;;;;;;;28.69;24.77;100667.66;5100924;28;20062;-61
2021/10/30 06:20:06;;;;;;;7.22;4.60;;;;;;;29.72;23.72;100678.38;5081126;28;20032;-61
2021/10/30 06:22:32;;;;;;;6.70;4.63;;;;;;;30.47;21.87;100648.69;5069023;28;20515;-60
2021/10/30 06:24:57;;;;;;;6.88;4.88;;;;;;;31.41;21.02;100682.25;5090207;28;20166;-61
2021/10/30 06:27:23;;;;;;;7.43;4.53;;;;;;;31.55;20.64;100671.75;5099453;28;20375;-62
2021/10/30 06:29:49;;;;;;;6.70;4.90;;;;;;;31.85;20.37;100666.06;5100686;28;20028;-61
2021/10/30 06:32:14;;;;;;;7.80;4.65;;;;;;;32.56;19.30;100658.53;5105964;28;20494;-62
2021/10/30 06:34:40;;;;;;;8.38;5.32;;;;;;;33.18;18.53;100665.91;5077381;28;20035;-62
2021/10/30 06:37:06;;;;;;;7.70;5.03;;;;;;;32.56;19.13;100673.22;5097804;28;20102;-62
2021/10/30 06:39:35;;;;;;;6.90;4.78;;;;;;;31.81;19.80;100672.31;5111824;28;20043;-63
2021/10/30 06:42:01;;;;;;;7.78;5.07;;;;;;;31.53;20.05;100665.63;5079749;28;20040;-62
2021/10/30 06:44:27;;;;;;;6.22;4.55;;;;;;;31.71;19.83;100672.91;5108633;28;20024;-62
2021/10/30 06:46:53;;;;;;;5.75;5.07;;;;;;;31.80;19.86;100682.53;5095135;28;20486;-61
2021/10/30 06:49:20;;;;;;;7.38;4.55;;;;;;;32.16;19.48;100682.41;5102637;28;20027;-60
2021/10/30 06:51:47;;;;;;;8.30;4.90;;;;;;;32.96;18.48;100667.78;5102046;28;20035;-61
2021/10/30 06:54:13;;;;;;;7.63;5.10;;;;;;;32.71;18.52;100675.41;5098419;28;20067;-60
2021/10/30 06:56:40;;;;;;;6.82;4.78;;;;;;;33.10;18.51;100685.75;5089471;28;20059;-62
2021/10/30 06:59:07;;;;;;;7.95;5.50;;;;;;;33.34;18.02;100671.66;5096112;28;20050;-62
2021/10/30 07:01:35;;;;;;;6.43;4.88;;;;;;;32.46;19.05;100673.88;5104304;28;20161;-62
2021/10/30 07:04:02;;;;;;;9.05;4.63;;;;;;;31.06;20.44;100687.50;5098844;28;20107;-61
2021/10/30 07:06:27;;;;;;;7.57;5.30;;;;;;;30.63;20.83;100675.69;5107334;28;20138;-61
2021/10/30 07:08:56;;;;;;;8.75;5.47;;;;;;;30.75;20.95;100677.66;5094096;28;20031;-62
2021/10/30 07:11:22;;;;;;;6.57;5.25;;;;;;;30.81;20.73;100681.34;5104468;28;20364;-60
2021/10/30 07:13:48;;;;;;;8.95;5.60;;;;;;;30.43;21.16;100681.50;5079250;28;20398;-61
2021/10/30 07:16:15;;;;;;;6.43;5.43;;;;;;;29.83;21.74;100666.56;5087130;28;20084;-60
2021/10/30 07:18:42;;;;;;;9.25;5.72;;;;;;;29.39;22.39;100698.88;5093521;28;20040;-61
2021/10/30 07:21:07;;;;;;;8.02;6.00;;;;;;;28.13;23.64;100690.22;5106473;28;20092;-61
2021/10/30 07:23:33;;;;;;;10.50;6.22;;;;;;;27.07;25.17;100684.78;5094692;28;20425;-61
2021/10/30 07:25:58;;;;;;;9.18;6.30;;;;;;;26.33;26.00;100669.06;5102438;28;20031;-62
2021/10/30 07:28:24;;;;;;;8.75;5.90;;;;;;;25.12;27.73;100667.63;5094802;28;20161;-61
2021/10/30 07:30:49;;;;;;;11.10;6.55;;;;;;;23.91;30.12;100689.97;5107412;28;20027;-62
2021/10/30 07:33:15;;;;;;;7.25;6.28;;;;;;;22.55;32.64;100704.44;5079141;28;20031;-61
2021/10/30 07:35:41;;;;;;;7.75;6.75;;;;;;;21.28;34.92;100702.53;5090765;28;20115;-61
2021/10/30 07:38:06;;;;;;;8.48;6.68;;;;;;;20.39;36.96;100697.75;5097260;28;20060;-60
2021/10/30 07:40:32;;;;;;;11.40;6.65;;;;;;;19.78;38.23;100713.13;5108372;28;20102;-61
2021/10/30 07:42:58;;;;;;;11.75;7.20;;;;;;;19.11;39.86;100712.91;5094283;28;20031;-62
2021/10/30 07:45:25;;;;;;;10.85;7.57;;;;;;;18.48;41.15;100705.53;5103135;28;20035;-63
2021/10/30 07:47:50;;;;;;;12.18;7.43;;;;;;;18.19;42.26;100703.88;5091251;28;20074;-61
2021/10/30 07:50:16;;;;;;;12.52;7.63;;;;;;;18.00;42.96;100698.53;5105134;28;20479;-62
2021/10/30 07:52:42;;;;;;;14.90;7.90;;;;;;;17.84;43.12;100704.63;5093048;28;20036;-61
2021/10/30 07:55:08;;;;;;;14.10;7.20;;;;;;;17.33;43.86;100669.75;5105102;28;20024;-62
2021/10/30 07:57:35;;;;;;;9.02;7.00;;;;;;;17.26;44.95;100715.50;5098714;28;20071;-61
2021/10/30 08:00:00;;;;;;;10.73;7.00;;;;;;;17.06;45.06;100703.88;5106804;28;20118;-61
2021/10/30 08:02:26;;;;;;;7.75;6.78;;;;;;;16.94;45.77;100716.66;5094098;28;20081;-62
2021/10/30 08:04:51;;;;;;;10.52;7.13;;;;;;;16.82;45.77;100715.97;5106839;28;20114;-57
2021/10/30 08:07:17;;;;;;;11.25;7.13;;;;;;;16.69;46.46;100720.78;5096673;28;20042;-69
2021/10/30 08:09:43;;;;;;;9.35;6.70;;;;;;;16.72;46.45;100709.69;5100036;28;20028;-59
2021/10/30 08:12:13;;;;;;;9.98;7.10;;;;;;;16.88;45.96;100725.31;5094139;28;20048;-62
2021/10/30 08:14:39;;;;;;;9.68;7.07;;;;;;;16.71;46.29;100713.38;5107293;28;20032;-61
2021/10/30 08:17:06;;;;;;;9.65;7.00;;;;;;;16.63;46.79;100727.59;5094966;28;20047;-60
2021/10/30 08:19:31;;;;;;;10.02;7.53;;;;;;;16.61;47.11;100707.97;5101866;28;20452;-62
2021/10/30 08:21:57;;;;;;;7.90;6.82;;;;;;;16.74;46.93;100722.06;5083565;28;20038;-63
2021/10/30 08:24:22;;;;;;;11.88;7.13;;;;;;;16.80;46.94;100723.38;5084417;28;20531;-60
2021/10/30 08:26:48;;;;;;;13.20;7.93;;;;;;;16.81;46.69;100718.78;5097231;28;20085;-60
2021/10/30 08:29:14;;;;;;;11.68;7.45;;;;;;;16.78;46.68;100725.34;5108676;28;20036;-60
2021/10/30 08:31:39;;;;;;;11.35;7.50;;;;;;;16.63;47.04;100731.19;5103542;28;20028;-62
2021/10/30 08:34:05;;;;;;;9.70;7.47;;;;;;;16.52;47.54;100723.22;5101225;28;20358;-61
2021/10/30 08:36:31;;;;;;;10.90;7.85;;;;;;;16.40;47.74;100722.47;5109945;28;20047;-59
2021/10/30 08:38:58;;;;;;;9.20;7.20;;;;;;;16.17;48.02;100689.44;5098573;28;20043;-58
2021/10/30 08:41:24;;;;;;;13.10;7.82;;;;;;;16.40;47.99;100729.72;5106646;28;20049;-57
2021/10/30 08:43:50;;;;;;;13.73;9.55;;;;;;;16.34;48.25;100723.03;5103863;28;20030;-58
2021/10/30 08:46:16;;;;;;;10.70;7.90;;;;;;;16.35;48.19;100716.63;5098839;28;20801;-59
2021/10/30 08:48:46;;;;;;;9.18;7.30;;;;;;;16.44;48.30;100728.44;5109034;28;20444;-58
2021/10/30 08:51:13;;;;;;;12.75;7.70;;;;;;;16.50;48.12;100726.03;5099572;28;20207;-62
2021/10/30 08:53:39;;;;;;;9.18;7.90;;;;;;;16.49;47.97;100724.34;5104303;28;20055;-57
2021/10/30 08:56:05;;;;;;;11.20;7.80;;;;;;;16.43;48.25;100715.94;5107071;28;20463;-60
2021/10/30 08:58:31;;;;;;;9.32;7.55;;;;;;;16.51;48.13;100735.00;5097380;28;20112;-59
2021/10/30 09:00:59;;;;;;;11.35;7.35;;;;;;;16.48;48.27;100735.28;5084257;28;20024;-60
2021/10/30 09:03:25;;;;;;;13.57;7.85;;;;;;;16.41;48.33;100726.91;5106049;28;20555;-59
2021/10/30 09:05:54;;;;;;;11.98;7.97;;;;;;;16.36;48.68;100721.03;5104365;28;20118;-61
2021/10/30 09:08:23;;;;;;;12.93;7.45;;;;;;;16.24;48.80;100722.16;5098540;28;20040;-62
2021/10/30 09:10:51;;;;;;;12.02;8.15;;;;;;;16.33;48.58;100738.41;5108332;28;20046;-61
2021/10/30 09:13:20;;;;;;;13.90;7.90;;;;;;;16.19;48.99;100726.13;5100155;28;20106;-63
2021/10/30 09:15:50;;;;;;;12.80;7.75;;;;;;;16.06;49.00;100733.63;5084173;28;20059;-63
2021/10/30 09:18:28;;;;;;;9.85;7.60;;;;;;;16.03;49.07;100721.22;5090128;28;20054;-60
2021/10/30 09:20:56;;;;;;;10.35;7.65;;;;;;;15.73;49.82;100714.00;5095461;28;20054;-57
2021/10/30 09:23:26;;;;;;;10.07;7.43;;;;;;;15.69;49.95;100729.63;5082025;28;20035;-61
2021/10/30 09:26:01;;;;;;;14.98;8.15;;;;;;;15.57;50.28;100728.00;5101940;28;20033;-61
2021/10/30 09:28:30;;;;;;;10.43;7.95;;;;;;;15.41;50.64;100720.38;5109286;28;20063;-61
2021/10/30 09:31:10;;;;;;;9.95;7.82;;;;;;;15.31;51.24;100720.31;5094528;28;20031;-60
2021/10/30 09:33:57;;;;;;;15.65;7.82;;;;;;;15.07;51.28;100697.16;5104160;28;20036;-58
2021/10/30 09:36:28;;;;;;;9.43;7.43;;;;;;;15.01;51.82;100713.88;5106822;28;20438;-62
2021/10/30 09:38:56;;;;;;;13.45;7.88;;;;;;;14.86;52.47;100716.03;5097219;28;20046;-62
2021/10/30 09:41:32;;;;;;;13.10;8.20;;;;;;;14.85;52.44;100714.34;5106228;28;20046;-62
2021/10/30 09:44:00;;;;;;;12.48;7.60;;;;;;;14.76;52.76;100708.75;5104345;28;20044;-60
2021/10/30 09:46:30;;;;;;;14.63;8.48;;;;;;;14.78;52.83;100720.25;5096165;28;20031;-59
2021/10/30 09:48:58;;;;;;;11.63;7.47;;;;;;;14.81;52.98;100711.03;5077202;28;20035;-60
2021/10/30 09:51:34;;;;;;;8.77;7.32;;;;;;;14.91;52.46;100713.81;5105164;28;20089;-61
2021/10/30 09:54:02;;;;;;;11.10;7.45;;;;;;;14.84;53.39;100707.22;5086547;28;20042;-60
2021/10/30 09:56:47;;;;;;;13.50;8.55;;;;;;;14.92;52.57;100702.91;5096050;28;20201;-60
2021/10/30 09:59:15;;;;;;;15.85;7.72;;;;;;;14.83;53.06;100706.38;5097751;28;20494;-60
2021/10/30 10:01:43;;;;;;;12.45;7.70;;;;;;;14.84;53.27;100701.84;5083849;28;20089;-63
2021/10/30 10:04:11;;;;;;;11.85;8.18;;;;;;;14.80;53.11;100711.19;5092545;28;20035;-61
2021/10/30 10:06:39;;;;;;;11.65;7.47;;;;;;;14.74;53.02;100716.09;5108877;28;20044;-62
2021/10/30 10:09:05;;;;;;;11.60;7.30;;;;;;;14.74;53.09;100713.41;5079141;28;20031;-64
2021/10/30 10:11:31;;;;;;;9.88;7.75;;;;;;;14.73;53.00;100711.69;5103648;28;20048;-62
2021/10/30 10:13:57;;;;;;;10.10;7.40;;;;;;;14.70;52.77;100706.50;5095715;28;20044;-62
2021/10/30 10:16:25;;;;;;;9.82;6.90;;;;;;;14.68;53.02;100718.44;5107800;28;20028;-62
2021/10/30 10:18:53;;;;;;;10.07;7.50;;;;;;;14.62;52.78;100712.56;5095511;28;20050;-63
2021/10/30 10:21:39;;;;;;;9.93;7.03;;;;;;;14.74;52.89;100718.81;5105643;28;20081;-61
2021/10/30 10:24:10;;;;;;;9.15;7.07;;;;;;;14.70;52.55;100716.44;5099722;28;20070;-61
2021/10/30 10:26:53;;;;;;;10.75;7.50;;;;;;;14.55;52.56;100679.00;5108843;28;20039;-59
2021/10/30 10:29:41;;;;;;;10.35;6.78;;;;;;;14.71;52.42;100718.19;5098128;28;20042;-61
2021/10/30 10:32:20;;;;;;;10.65;6.80;;;;;;;14.69;52.82;100720.97;5098783;28;20028;-60
2021/10/30 10:34:46;;;;;;;11.00;7.35;;;;;;;14.58;53.02;100703.00;5106729;28;20524;-61
2021/10/30 10:37:12;;;;;;;9.55;7.28;;;;;;;14.69;53.07;100710.19;5097466;28;20028;-62
2021/10/30 10:39:43;;;;;;;9.05;7.20;;;;;;;14.70;52.51;100709.19;5111642;28;20035;-62
2021/10/30 10:42:11;;;;;;;9.50;6.82;;;;;;;14.50;52.82;100665.06;5098875;28;20085;-59
2021/10/30 10:44:42;;;;;;;13.55;7.00;;;;;;;14.84;52.42;100707.22;5090619;28;20079;-61
2021/10/30 10:47:38;;;;;;;9.55;7.38;;;;;;;14.91;52.06;100703.00;5096425;28;20046;-61
2021/10/30 10:50:10;;;;;;;10.80;6.97;;;;;;;14.87;52.04;100712.34;5098185;28;20055;-61
2021/10/30 10:52:41;;;;;;;8.93;6.53;;;;;;;14.58;52.47;100665.28;5108168;28;20338;-61
2021/10/30 10:55:07;;;;;;;11.63;7.28;;;;;;;14.79;52.27;100704.91;5096771;28;20031;-61
2021/10/30 10:57:43;;;;;;;11.00;6.90;;;;;;;14.77;52.31;100705.06;5102875;28;20016;-61
2021/10/30 11:00:11;;;;;;;8.70;6.53;;;;;;;14.80;52.37;100703.94;5086982;28;20368;-66
2021/10/30 11:02:38;;;;;;;11.40;6.80;;;;;;;14.78;52.43;100698.69;5095458;28;20125;-63
2021/10/30 11:05:06;;;;;;;10.02;6.72;;;;;;;14.83;51.74;100703.69;5107742;28;20032;-64
2021/10/30 11:07:33;;;;;;;10.68;6.55;;;;;;;14.72;52.17;100693.81;5099916;28;20387;-59
2021/10/30 11:10:06;;;;;;;11.20;6.72;;;;;;;14.75;52.17;100690.84;5080636;28;20040;-61
2021/10/30 11:12:32;;;;;;;11.00;6.93;;;;;;;14.71;52.26;100692.09;5107999;28;20047;-60
2021/10/30 11:15:05;;;;;;;14.15;7.00;;;;;;;14.79;51.88;100702.22;5095299;28;20068;-60
2021/10/30 11:17:43;;;;;;;13.70;7.05;;;;;;;14.77;52.11;100691.59;5102880;28;20028;-62
2021/10/30 11:20:19;;;;;;;9.65;7.05;;;;;;;14.66;51.92;100667.31;5104937;28;20043;-61
2021/10/30 11:22:57;;;;;;;13.30;7.75;;;;;;;14.80;52.06;100692.31;5076691;28;20067;-60